Time;durP1;ratioP1;P1;durP2;ratioP2;P2;SDS_P1;SDS_P2;PMS_P1;PMS_P2;Temp;Humidity;BMP_temperature;BMP_pressure;BME280_temperature;BME280_humidity;BME280_pressure;Samples;Min_cycle;Max_cycle;Signal;HPM_P1;HPM_P2
2021/12/14 00:01:08;;;;;;;0.05;0.05;;;;;;;4.92;76.42;101684.81;7366458;19;20002;-59
2021/12/14 00:03:39;;;;;;;0.10;0.10;;;;;;;4.81;76.65;101669.94;7359729;19;20022;-59
2021/12/14 00:06:04;;;;;;;0.00;0.00;;;;;;;4.87;76.49;101676.09;7359289;19;21357;-59
2021/12/14 00:08:36;;;;;;;0.00;0.00;;;;;;;4.86;76.69;101684.69;7360717;19;20026;-58
2021/12/14 00:13:47;;;;;;;0.00;0.00;;;;;;;4.82;76.92;101687.22;7360998;19;20010;-62
2021/12/14 00:16:15;;;;;;;0.10;0.10;;;;;;;4.82;76.59;101679.47;7359778;19;20692;-58
2021/12/14 00:18:41;;;;;;;0.00;0.00;;;;;;;4.80;76.54;101686.31;7357960;19;20024;-61
2021/12/14 00:21:18;;;;;;;0.10;0.10;;;;;;;4.78;76.83;101686.28;7355333;19;20118;-58
2021/12/14 00:26:31;;;;;;;0.00;0.00;;;;;;;4.74;76.38;101678.44;7358210;19;20023;-58
2021/12/14 00:28:56;;;;;;;0.08;0.08;;;;;;;4.66;76.90;101670.53;7352684;19;20011;-58
2021/12/14 00:31:22;;;;;;;0.10;0.10;;;;;;;4.68;76.73;101674.91;7356686;19;20010;-62
2021/12/14 00:33:51;;;;;;;0.00;0.00;;;;;;;4.70;76.77;101677.50;7360050;19;20026;-58
2021/12/14 00:36:18;;;;;;;0.00;0.00;;;;;;;4.55;76.27;101648.78;7361055;19;20006;-58
2021/12/14 00:38:46;;;;;;;0.00;0.00;;;;;;;4.65;76.52;101669.66;7359105;19;20034;-62
2021/12/14 00:41:20;;;;;;;0.10;0.10;;;;;;;4.65;76.47;101668.81;7362971;19;20031;-61
2021/12/14 00:43:46;;;;;;;0.00;0.00;;;;;;;4.57;76.62;101658.34;7359695;19;20018;-58
2021/12/14 00:46:13;;;;;;;0.10;0.10;;;;;;;4.60;76.53;101663.53;7360497;19;20067;-58
2021/12/14 00:48:40;;;;;;;0.00;0.00;;;;;;;4.57;76.20;101660.94;7354368;19;20014;-58
2021/12/14 00:51:07;;;;;;;0.00;0.00;;;;;;;4.55;76.18;101653.97;7362090;19;20894;-59
2021/12/14 00:53:33;;;;;;;0.10;0.10;;;;;;;4.52;76.31;101649.63;7361809;19;20010;-59
2021/12/14 00:56:04;;;;;;;0.00;0.00;;;;;;;4.52;76.19;101661.69;7360062;19;20471;-58
2021/12/14 00:58:30;;;;;;;0.00;0.00;;;;;;;4.49;76.46;101665.09;7365511;19;20006;-58
2021/12/14 01:00:58;;;;;;;0.03;0.03;;;;;;;4.47;76.44;101665.91;7361809;19;20002;-58
2021/12/14 01:03:26;;;;;;;0.00;0.00;;;;;;;4.45;76.33;101665.00;7365271;19;20017;-58
2021/12/14 01:05:52;;;;;;;;;;;;;;;4.43;75.46;101662.41;7365324;19;20141;-58
2021/12/14 01:08:21;;;;;;;0.10;0.10;;;;;;;4.40;76.09;101670.09;7361080;19;19934;-61
2021/12/14 01:11:02;;;;;;;0.08;0.08;;;;;;;4.35;76.10;101664.81;7363771;19;20010;-61
2021/12/14 01:13:30;;;;;;;0.10;0.10;;;;;;;4.26;75.72;101649.16;7362958;19;20002;-61
2021/12/14 01:23:59;;;;;;;0.00;0.00;;;;;;;4.13;76.16;101673.03;7360987;19;20014;-61
2021/12/14 01:26:24;;;;;;;0.10;0.10;;;;;;;4.09;76.36;101671.22;7363197;19;20037;-59
2021/12/14 01:28:50;;;;;;;0.10;0.10;;;;;;;4.07;76.03;101662.59;7364821;19;20010;-60
2021/12/14 01:31:34;;;;;;;0.10;0.10;;;;;;;4.04;76.13;101662.50;7358519;19;20014;-60
2021/12/14 01:34:08;;;;;;;0.08;0.08;;;;;;;4.03;76.38;101664.22;7334844;19;20486;-60
2021/12/14 01:36:39;;;;;;;0.10;0.10;;;;;;;4.01;76.19;101662.47;7361647;19;20007;-61
2021/12/14 01:41:46;;;;;;;0.10;0.10;;;;;;;3.98;76.65;101646.91;7362606;19;20891;-60
2021/12/14 01:44:12;;;;;;;0.00;0.00;;;;;;;3.96;76.62;101638.25;7358181;19;20013;-61
2021/12/14 01:46:53;;;;;;;0.10;0.10;;;;;;;3.95;76.15;101641.66;7361446;19;20014;-60
2021/12/14 01:49:20;;;;;;;0.10;0.10;;;;;;;3.92;76.55;101637.31;7359962;19;20017;-61
2021/12/14 01:51:49;;;;;;;0.10;0.10;;;;;;;3.92;76.68;101636.44;7363768;19;20046;-60
2021/12/14 01:54:18;;;;;;;0.10;0.10;;;;;;;3.87;76.42;101632.06;7363523;19;20079;-60
2021/12/14 01:56:43;;;;;;;0.03;0.03;;;;;;;3.88;76.49;101630.34;7354998;19;20018;-60
2021/12/14 01:59:14;;;;;;;0.10;0.10;;;;;;;3.87;76.30;101639.81;7359555;19;20043;-60
2021/12/14 02:01:56;;;;;;;0.00;0.00;;;;;;;3.86;76.34;101626.88;7360550;19;20744;-61
2021/12/14 02:04:26;;;;;;;0.10;0.10;;;;;;;3.79;76.23;101620.69;7360387;19;20006;-60
2021/12/14 02:06:59;;;;;;;0.08;0.08;;;;;;;3.85;76.47;101623.41;7361905;19;20015;-61
2021/12/14 02:09:28;;;;;;;0.10;0.10;;;;;;;3.84;76.34;101626.81;7361876;19;20014;-60
2021/12/14 02:11:57;;;;;;;0.00;0.00;;;;;;;3.82;76.59;101625.94;7363996;19;20031;-60
2021/12/14 02:14:25;;;;;;;0.10;0.10;;;;;;;3.78;76.44;101611.19;7363138;19;20899;-60
2021/12/14 02:16:54;;;;;;;0.10;0.10;;;;;;;3.83;77.01;101622.50;7363433;19;20799;-60
2021/12/14 02:19:21;;;;;;;0.10;0.10;;;;;;;3.84;76.97;101629.41;7365246;19;20073;-61
2021/12/14 02:21:52;;;;;;;0.00;0.00;;;;;;;3.83;76.89;101626.78;7362382;19;20053;-60
2021/12/14 02:24:19;;;;;;;0.10;0.10;;;;;;;3.81;76.92;101629.34;7363302;19;20765;-60
2021/12/14 02:26:47;;;;;;;0.10;0.10;;;;;;;3.81;76.94;101629.34;7363835;19;20010;-60
2021/12/14 02:29:32;;;;;;;;;;;;;;;3.83;76.40;101627.66;7360318;19;20010;-60
2021/12/14 02:32:12;;;;;;;0.00;0.00;;;;;;;3.75;76.72;101628.34;7364589;19;19923;-61
2021/12/14 02:34:40;;;;;;;0.00;0.00;;;;;;;3.79;76.74;101641.34;7359649;19;20018;-61
2021/12/14 02:37:05;;;;;;;0.00;0.00;;;;;;;3.78;76.70;101636.16;7364423;19;20027;-61
2021/12/14 02:39:48;;;;;;;0.00;0.00;;;;;;;3.75;76.40;101634.41;7362985;19;20014;-61
2021/12/14 02:42:26;;;;;;;0.00;0.00;;;;;;;3.76;76.72;101630.97;7365209;19;20534;-60
2021/12/14 02:44:54;;;;;;;0.00;0.00;;;;;;;3.64;76.63;101620.38;7358952;19;20005;-60
2021/12/14 02:47:21;;;;;;;0.10;0.10;;;;;;;3.58;76.64;101615.09;7361410;19;20006;-60
2021/12/14 02:49:51;;;;;;;0.10;0.10;;;;;;;3.58;76.61;101620.25;7362372;19;20013;-60
2021/12/14 02:52:31;;;;;;;0.10;0.10;;;;;;;3.68;76.67;101645.44;7361837;19;20108;-61
2021/12/14 02:55:21;;;;;;;0.10;0.10;;;;;;;3.69;77.00;101649.75;7363449;19;20007;-60
2021/12/14 02:57:52;;;;;;;0.00;0.00;;;;;;;3.68;76.59;101647.16;7251629;19;2004449;-61
2021/12/14 03:00:27;;;;;;;0.03;0.03;;;;;;;3.67;76.56;101651.44;7359407;19;20742;-61
2021/12/14 03:02:53;;;;;;;0.00;0.00;;;;;;;3.65;76.87;101658.31;7363552;19;20030;-60
2021/12/14 03:05:28;;;;;;;0.08;0.08;;;;;;;3.65;76.65;101658.31;7365328;19;20349;-60
2021/12/14 03:08:07;;;;;;;0.00;0.00;;;;;;;3.62;76.73;101651.34;7363181;19;20022;-61
2021/12/14 03:10:51;;;;;;;0.10;0.10;;;;;;;3.62;76.60;101653.06;7363051;19;20381;-61
2021/12/14 03:13:18;;;;;;;0.00;0.00;;;;;;;3.61;76.50;101656.50;7363267;19;20082;-60
2021/12/14 03:15:50;;;;;;;0.10;0.10;;;;;;;3.60;76.92;101652.19;7356761;19;20051;-60
2021/12/14 03:18:22;;;;;;;0.10;0.10;;;;;;;3.59;76.82;101647.81;7359354;19;20011;-61
2021/12/14 03:20:55;;;;;;;0.10;0.10;;;;;;;3.58;76.99;101646.09;7358336;19;20082;-61
2021/12/14 03:23:31;;;;;;;0.10;0.10;;;;;;;3.57;76.43;101641.78;7354396;19;20014;-61
2021/12/14 03:26:00;;;;;;;0.10;0.10;;;;;;;3.55;76.76;101646.03;7361614;19;20025;-60
2021/12/14 03:28:29;;;;;;;0.10;0.10;;;;;;;3.53;76.59;101637.38;7360230;19;20017;-60
2021/12/14 03:31:28;;;;;;;0.10;0.10;;;;;;;3.54;76.63;101639.09;7360180;19;20026;-60
2021/12/14 03:34:13;;;;;;;0.00;0.00;;;;;;;3.50;76.79;101635.63;7259468;19;2004469;-61
2021/12/14 03:36:42;;;;;;;0.10;0.10;;;;;;;3.47;76.23;101632.09;7360414;19;20022;-60
2021/12/14 03:39:15;;;;;;;0.10;0.10;;;;;;;3.48;76.61;101639.00;7360404;19;20007;-60
2021/12/14 03:41:46;;;;;;;0.05;0.05;;;;;;;3.46;76.43;101638.09;7349847;19;20489;-60
2021/12/14 03:44:17;;;;;;;0.10;0.10;;;;;;;3.46;76.45;101632.94;7363116;19;20010;-61
2021/12/14 03:46:48;;;;;;;0.10;0.10;;;;;;;3.45;76.45;101633.75;7353949;19;20006;-60
2021/12/14 03:49:15;;;;;;;0.10;0.10;;;;;;;3.31;76.63;101618.84;7359203;19;20007;-60
2021/12/14 03:51:43;;;;;;;0.10;0.10;;;;;;;3.45;77.02;101641.50;7357904;19;20011;-60
2021/12/14 03:54:09;;;;;;;0.10;0.10;;;;;;;3.45;76.93;101644.06;7358614;19;20021;-61
2021/12/14 03:56:35;;;;;;;0.00;0.00;;;;;;;3.47;77.00;101650.16;7352357;19;20077;-60
2021/12/14 03:59:01;;;;;;;0.10;0.10;;;;;;;3.47;77.04;101645.00;7362634;19;20102;-60
2021/12/14 04:01:31;;;;;;;0.00;0.00;;;;;;;3.48;77.21;101636.41;7367098;19;20402;-61
2021/12/14 04:04:09;;;;;;;0.10;0.10;;;;;;;3.51;77.46;101628.75;7362286;19;20463;-61
2021/12/14 04:06:35;;;;;;;0.10;0.10;;;;;;;3.51;76.94;101629.59;7359196;19;20014;-60
2021/12/14 04:09:02;;;;;;;0.10;0.10;;;;;;;3.53;77.08;101637.38;7361025;19;20345;-61
2021/12/14 04:11:28;;;;;;;0.10;0.10;;;;;;;3.55;77.15;101640.88;7365781;19;20019;-60
2021/12/14 04:13:54;;;;;;;0.00;0.00;;;;;;;3.57;77.38;101639.19;7368646;19;20081;-60
2021/12/14 04:16:24;;;;;;;0.00;0.00;;;;;;;3.58;77.09;101634.03;7360972;19;20495;-61
2021/12/14 04:18:50;;;;;;;0.10;0.10;;;;;;;3.62;77.53;101642.75;7340452;19;20056;-60
2021/12/14 04:21:15;;;;;;;0.05;0.05;;;;;;;3.64;77.17;101633.28;7367053;19;20029;-61
2021/12/14 04:23:44;;;;;;;0.10;0.10;;;;;;;3.69;77.84;101648.88;7366746;19;20081;-61
2021/12/14 04:26:12;;;;;;;0.00;0.00;;;;;;;3.71;77.75;101647.22;7365620;19;20013;-60
2021/12/14 04:28:45;;;;;;;0.00;0.00;;;;;;;3.74;77.51;101645.56;7360582;19;20010;-60
2021/12/14 04:31:11;;;;;;;0.00;0.00;;;;;;;3.76;77.35;101650.78;7364040;19;20027;-60
2021/12/14 04:33:40;;;;;;;0.10;0.10;;;;;;;3.76;77.34;101650.78;7369202;19;20010;-60
2021/12/14 04:36:10;;;;;;;0.08;0.08;;;;;;;3.81;77.40;101657.78;7365747;19;20017;-60
2021/12/14 04:38:45;;;;;;;0.10;0.10;;;;;;;3.82;77.24;101659.50;7359510;19;20022;-61
2021/12/14 04:52:04;;;;;;;0.10;0.10;;;;;;;4.00;77.63;101663.28;7365416;19;20018;-61
2021/12/14 04:54:40;;;;;;;0.10;0.10;;;;;;;4.10;77.66;101657.47;7362225;19;20043;-60
2021/12/14 04:57:26;;;;;;;0.00;0.00;;;;;;;4.17;77.82;101659.34;7367032;19;20023;-61
2021/12/14 04:59:55;;;;;;;0.05;0.05;;;;;;;4.12;77.45;101635.13;7367342;19;20006;-60
2021/12/14 05:02:28;;;;;;;0.10;0.10;;;;;;;4.34;78.41;101657.91;7361901;19;20018;-61
2021/12/14 05:04:56;;;;;;;0.00;0.00;;;;;;;4.41;78.21;101654.63;7366243;19;20045;-61
2021/12/14 05:09:55;;;;;;;0.08;0.08;;;;;;;4.59;78.30;101668.69;7365658;19;20018;-61
2021/12/14 05:12:29;;;;;;;0.10;0.10;;;;;;;4.68;78.19;101664.56;7367047;19;20006;-61
2021/12/14 05:14:56;;;;;;;0.05;0.05;;;;;;;4.75;77.90;101664.66;7367730;19;20010;-61
2021/12/14 05:17:30;;;;;;;0.00;0.00;;;;;;;4.85;77.96;101664.81;7363229;19;20038;-60
2021/12/14 05:19:56;;;;;;;0.10;0.10;;;;;;;4.91;78.26;101667.50;7366050;19;20769;-61
2021/12/14 05:22:33;;;;;;;0.03;0.03;;;;;;;5.01;78.57;101654.72;7359337;19;20010;-60
2021/12/14 05:25:06;;;;;;;0.00;0.00;;;;;;;5.10;78.47;101663.50;7368450;19;20021;-60
2021/12/14 05:27:36;;;;;;;0.10;0.10;;;;;;;5.12;78.17;101655.75;7363090;19;20070;-61
2021/12/14 05:30:14;;;;;;;0.10;0.10;;;;;;;5.24;78.11;101666.31;7362459;19;20010;-61
2021/12/14 05:32:40;;;;;;;0.03;0.03;;;;;;;5.33;78.39;101666.44;7365964;19;20011;-61
2021/12/14 05:35:09;;;;;;;0.08;0.08;;;;;;;5.41;78.25;101664.81;7366902;19;20043;-60
2021/12/14 05:37:43;;;;;;;0.00;0.00;;;;;;;5.46;78.39;101657.09;7366169;19;20047;-61
2021/12/14 05:40:18;;;;;;;0.00;0.00;;;;;;;5.41;78.38;101638.03;7361760;19;20043;-60
2021/12/14 05:45:28;;;;;;;0.10;0.10;;;;;;;5.55;78.00;101646.88;7365153;19;20070;-61
2021/12/14 05:47:56;;;;;;;0.10;0.10;;;;;;;5.80;78.50;101668.78;7361230;19;20006;-60
2021/12/14 05:50:31;;;;;;;0.10;0.10;;;;;;;5.91;77.92;101675.00;7364840;19;20380;-61
2021/12/14 05:52:58;;;;;;;0.10;0.10;;;;;;;5.96;78.11;101675.91;7360947;19;20010;-60
2021/12/14 05:55:28;;;;;;;0.08;0.08;;;;;;;6.04;78.22;101669.97;7366287;19;20033;-61
2021/12/14 05:57:57;;;;;;;0.00;0.00;;;;;;;6.09;78.02;101687.31;7360998;19;20037;-61
2021/12/14 06:00:23;;;;;;;0.00;0.00;;;;;;;6.11;78.04;101676.94;7365455;19;20010;-60
2021/12/14 06:02:49;;;;;;;0.08;0.08;;;;;;;6.23;78.45;101690.94;7364275;19;20021;-60
2021/12/14 06:05:18;;;;;;;0.10;0.10;;;;;;;6.33;78.06;101686.69;7365499;19;20030;-60
2021/12/14 06:07:44;;;;;;;0.00;0.00;;;;;;;6.38;78.24;101690.19;7364050;19;20418;-61
2021/12/14 06:10:12;;;;;;;0.08;0.08;;;;;;;6.46;78.19;101683.38;7365218;19;20015;-60
2021/12/14 06:12:38;;;;;;;0.00;0.00;;;;;;;6.52;78.01;101681.69;7359484;19;20023;-60
2021/12/14 06:15:13;;;;;;;0.00;0.00;;;;;;;6.60;78.16;101680.06;7363438;19;20082;-61
2021/12/14 06:17:41;;;;;;;0.00;0.00;;;;;;;6.65;77.93;101686.16;7363002;19;20003;-60
2021/12/14 06:20:09;;;;;;;0.00;0.00;;;;;;;6.70;77.74;101687.06;7362836;19;20015;-61
2021/12/14 06:22:36;;;;;;;0.00;0.00;;;;;;;6.74;78.09;101691.41;7365235;19;20013;-61
2021/12/14 06:25:17;;;;;;;0.10;0.10;;;;;;;6.81;77.45;101693.22;7365216;19;20031;-61
2021/12/14 06:27:45;;;;;;;0.08;0.08;;;;;;;6.82;77.93;101697.56;7363910;19;21006;-60
2021/12/14 06:30:24;;;;;;;0.08;0.08;;;;;;;6.88;77.85;101707.13;7358055;19;20053;-58
2021/12/14 06:32:57;;;;;;;0.00;0.00;;;;;;;6.92;77.88;101704.56;7363610;19;20014;-61
2021/12/14 06:35:32;;;;;;;0.00;0.00;;;;;;;6.94;77.84;101710.63;7364582;19;20006;-61
2021/12/14 06:40:45;;;;;;;0.05;0.05;;;;;;;7.02;77.21;101706.38;7356821;19;20112;-60
2021/12/14 06:43:15;;;;;;;0.00;0.00;;;;;;;7.03;77.36;101689.94;7363464;19;20035;-58
2021/12/14 06:45:45;;;;;;;0.00;0.00;;;;;;;7.02;77.48;101701.19;7362804;19;20066;-61
2021/12/14 06:48:13;;;;;;;0.10;0.10;;;;;;;7.07;77.79;101701.22;7363609;19;20002;-60
2021/12/14 06:50:47;;;;;;;0.10;0.10;;;;;;;7.11;77.61;101689.13;7364112;19;20002;-61
2021/12/14 06:53:16;;;;;;;0.00;0.00;;;;;;;7.12;77.62;101693.47;7362143;19;20025;-61
2021/12/14 06:55:43;;;;;;;0.03;0.03;;;;;;;7.12;77.60;101693.47;7364032;19;20020;-61
2021/12/14 06:58:15;;;;;;;0.00;0.00;;;;;;;7.15;77.28;101686.59;7354478;19;20129;-60
2021/12/14 07:00:50;;;;;;;0.00;0.00;;;;;;;7.18;77.29;101683.13;7365822;19;20018;-60
2021/12/14 07:03:16;;;;;;;0.00;0.00;;;;;;;7.12;77.45;101683.94;7355381;19;20007;-61
2021/12/14 07:05:49;;;;;;;0.10;0.10;;;;;;;7.17;77.32;101690.03;7361666;19;20007;-61
2021/12/14 07:08:26;;;;;;;0.10;0.10;;;;;;;7.18;77.59;101696.09;7358694;19;20049;-60
2021/12/14 07:10:52;;;;;;;0.10;0.10;;;;;;;7.15;77.47;101689.19;7362319;19;20006;-60
2021/12/14 07:13:24;;;;;;;0.10;0.10;;;;;;;7.20;77.68;101695.28;7354804;19;20026;-60
2021/12/14 07:15:51;;;;;;;0.00;0.00;;;;;;;7.20;77.42;101697.00;7361130;19;19999;-61
2021/12/14 07:18:24;;;;;;;0.00;0.00;;;;;;;7.23;77.46;101684.03;7360460;19;20010;-61
2021/12/14 07:20:50;;;;;;;0.10;0.10;;;;;;;7.22;77.48;101690.06;7360549;19;20011;-58
2021/12/14 07:23:19;;;;;;;0.00;0.00;;;;;;;7.25;77.26;101682.31;7361938;19;20021;-60
2021/12/14 07:25:50;;;;;;;0.10;0.10;;;;;;;7.24;77.55;101688.34;7359628;19;20090;-61
2021/12/14 07:28:18;;;;;;;0.00;0.00;;;;;;;7.11;77.47;101665.75;7360803;19;20014;-60
2021/12/14 07:30:51;;;;;;;0.00;0.00;;;;;;;7.22;77.45;101687.47;7357716;19;20014;-61
2021/12/14 07:33:28;;;;;;;0.00;0.00;;;;;;;7.23;77.03;101684.03;7363634;19;20486;-61
2021/12/14 07:36:09;;;;;;;0.00;0.00;;;;;;;7.24;77.37;101684.03;7365344;19;20570;-60
2021/12/14 07:38:51;;;;;;;0.00;0.00;;;;;;;7.24;77.16;101685.75;7366662;19;20006;-61
2021/12/14 07:41:33;;;;;;;0.00;0.00;;;;;;;7.23;76.97;101673.63;7365346;19;20007;-61
2021/12/14 07:44:02;;;;;;;0.10;0.10;;;;;;;7.21;77.25;101675.34;7365506;19;20011;-61
2021/12/14 07:46:31;;;;;;;0.05;0.05;;;;;;;7.18;77.06;101675.31;7367893;19;20478;-61
2021/12/14 07:49:02;;;;;;;0.00;0.00;;;;;;;7.16;77.24;101672.72;7367834;19;20022;-60
2021/12/14 07:51:31;;;;;;;0.00;0.00;;;;;;;7.13;77.36;101672.69;7364559;19;20071;-61
2021/12/14 07:54:03;;;;;;;0.00;0.00;;;;;;;7.12;77.07;101670.09;7369630;19;20007;-61
2021/12/14 07:56:34;;;;;;;0.00;0.00;;;;;;;7.10;77.27;101669.22;7359293;19;20031;-61
2021/12/14 07:59:01;;;;;;;0.00;0.00;;;;;;;7.08;77.12;101657.94;7361183;19;20102;-61
2021/12/14 08:01:27;;;;;;;0.00;0.00;;;;;;;7.03;77.49;101660.50;7356832;19;20037;-60
2021/12/14 08:04:12;;;;;;;0.00;0.00;;;;;;;7.04;76.89;101667.44;7360261;19;20722;-61
2021/12/14 08:06:53;;;;;;;0.10;0.10;;;;;;;7.01;77.14;101659.63;7364593;19;20599;-60
2021/12/14 08:09:35;;;;;;;0.00;0.00;;;;;;;6.98;77.13;101667.38;7357557;19;20021;-60
2021/12/14 08:12:03;;;;;;;0.00;0.00;;;;;;;6.93;77.01;101669.94;7368573;19;20015;-61
2021/12/14 08:14:29;;;;;;;0.08;0.08;;;;;;;6.88;77.08;101661.25;7362067;19;20026;-60
2021/12/14 08:17:04;;;;;;;0.00;0.00;;;;;;;6.85;77.06;101666.44;7364003;19;20093;-61
2021/12/14 08:19:40;;;;;;;0.03;0.03;;;;;;;6.83;77.10;101662.94;7363963;19;20018;-60
2021/12/14 08:22:15;;;;;;;0.00;0.00;;;;;;;6.79;77.34;101660.31;7358919;19;20007;-61
2021/12/14 08:24:48;;;;;;;0.10;0.10;;;;;;;6.76;77.41;101666.34;7362944;19;20483;-61
2021/12/14 08:27:19;;;;;;;0.00;0.00;;;;;;;6.73;77.27;101666.31;7366365;19;20026;-61
2021/12/14 08:29:49;;;;;;;0.05;0.05;;;;;;;6.69;77.54;101669.75;7368746;19;20015;-60
2021/12/14 08:32:20;;;;;;;0.00;0.00;;;;;;;6.65;77.65;101666.28;7361797;19;20050;-60
2021/12/14 08:34:47;;;;;;;0.10;0.10;;;;;;;6.63;77.81;101665.38;7362969;19;20011;-61
2021/12/14 08:37:21;;;;;;;0.05;0.05;;;;;;;6.62;77.55;101667.97;7361787;19;20017;-61
2021/12/14 08:39:59;;;;;;;0.00;0.00;;;;;;;6.60;77.92;101667.94;7370328;19;20031;-61
2021/12/14 08:42:36;;;;;;;0.10;0.10;;;;;;;6.59;77.48;101667.91;7357440;19;20018;-61
2021/12/14 08:45:25;;;;;;;0.00;0.00;;;;;;;6.57;77.44;101669.63;7368262;19;20014;-60
2021/12/14 08:48:16;;;;;;;0.00;0.00;;;;;;;6.56;77.48;101673.09;7367350;19;20025;-60
2021/12/14 08:50:48;;;;;;;0.00;0.00;;;;;;;6.52;77.94;101686.88;7258130;19;2004129;-60
2021/12/14 08:53:15;;;;;;;0.00;0.00;;;;;;;6.48;77.90;101697.22;7355102;19;20006;-61
2021/12/14 08:55:44;;;;;;;0.00;0.00;;;;;;;6.50;77.80;101699.84;7358251;19;20018;-61
2021/12/14 08:58:15;;;;;;;0.05;0.05;;;;;;;6.50;77.81;101684.28;7364240;19;20031;-61
2021/12/14 09:00:56;;;;;;;0.00;0.00;;;;;;;6.50;77.86;101702.47;7368265;19;20045;-61
2021/12/14 09:03:33;;;;;;;0.00;0.00;;;;;;;6.49;77.77;101700.72;7361548;19;20035;-61
2021/12/14 09:06:16;;;;;;;0.10;0.10;;;;;;;6.48;78.12;101696.34;7357696;19;20002;-60
2021/12/14 09:08:43;;;;;;;0.03;0.03;;;;;;;6.48;77.87;101699.81;7363260;19;20006;-60
2021/12/14 09:11:11;;;;;;;0.00;0.00;;;;;;;6.38;78.12;101685.00;7365867;19;20020;-60
2021/12/14 09:13:37;;;;;;;0.05;0.05;;;;;;;6.49;78.09;101701.59;7365261;19;20367;-60
2021/12/14 09:16:13;;;;;;;0.00;0.00;;;;;;;6.54;78.02;101711.13;7364749;19;20663;-60
2021/12/14 09:18:46;;;;;;;0.10;0.10;;;;;;;6.54;77.88;101696.44;7360489;19;20013;-60
2021/12/14 09:21:16;;;;;;;0.00;0.00;;;;;;;6.54;78.26;101695.53;7369218;19;20006;-60
2021/12/14 09:23:44;;;;;;;0.00;0.00;;;;;;;6.58;78.10;101692.13;7353017;19;20021;-61
2021/12/14 09:26:16;;;;;;;0.00;0.00;;;;;;;6.63;77.93;101700.84;7355852;19;20389;-61
2021/12/14 09:28:42;;;;;;;0.00;0.00;;;;;;;6.65;78.14;101696.53;7363128;19;20023;-60
2021/12/14 09:31:13;;;;;;;0.00;0.00;;;;;;;6.72;78.53;101695.72;7365560;19;20391;-61
2021/12/14 09:33:40;;;;;;;0.00;0.00;;;;;;;6.72;78.03;101690.53;7362616;19;20033;-61
2021/12/14 09:36:12;;;;;;;0.10;0.10;;;;;;;6.84;78.13;101701.03;7351626;19;20030;-61
2021/12/14 09:38:42;;;;;;;0.10;0.10;;;;;;;6.92;78.06;101699.38;7363824;19;20018;-61
2021/12/14 09:41:11;;;;;;;0.10;0.10;;;;;;;6.98;78.08;101704.59;7358019;19;20037;-60
2021/12/14 09:43:37;;;;;;;0.00;0.00;;;;;;;7.02;77.85;101706.38;7362020;19;20014;-61
2021/12/14 09:46:06;;;;;;;0.10;0.10;;;;;;;7.12;77.92;101709.91;7368781;19;20014;-60
2021/12/14 09:48:36;;;;;;;0.00;0.00;;;;;;;7.23;78.06;101715.19;7360760;19;20024;-61
2021/12/14 09:51:07;;;;;;;0.03;0.03;;;;;;;7.33;78.02;101711.81;7365868;19;20011;-61
2021/12/14 09:53:42;;;;;;;0.00;0.00;;;;;;;7.44;78.25;101710.13;7365275;19;20582;-58
2021/12/14 09:56:11;;;;;;;0.00;0.00;;;;;;;7.46;77.86;101698.03;7364261;19;20031;-59
2021/12/14 09:58:41;;;;;;;0.00;0.00;;;;;;;7.69;77.75;101715.47;7361287;19;20018;-59
2021/12/14 10:01:19;;;;;;;0.10;0.10;;;;;;;7.85;77.54;101717.28;7359276;19;20015;-59
2021/12/14 10:03:48;;;;;;;0.00;0.00;;;;;;;7.97;77.54;101717.38;7365012;19;20011;-58
2021/12/14 10:06:18;;;;;;;0.00;0.00;;;;;;;8.10;77.43;101707.00;7366575;19;20041;-58
2021/12/14 10:08:51;;;;;;;0.00;0.00;;;;;;;8.31;77.41;101707.06;7366183;19;20025;-59
2021/12/14 10:11:34;;;;;;;0.00;0.00;;;;;;;8.52;77.75;101701.97;7360725;19;20668;-58
2021/12/14 10:14:00;;;;;;;0.00;0.00;;;;;;;8.86;77.06;101722.81;7366391;19;20037;-58
2021/12/14 10:16:26;;;;;;;0.00;0.00;;;;;;;9.12;76.76;101733.25;7363356;19;20026;-58
2021/12/14 10:18:58;;;;;;;0.00;0.00;;;;;;;9.38;76.61;101721.91;7355096;19;20041;-59
2021/12/14 10:21:29;;;;;;;0.00;0.00;;;;;;;9.64;75.78;101729.72;7364047;19;20027;-59
2021/12/14 10:23:58;;;;;;;0.10;0.10;;;;;;;9.94;75.45;101734.84;7362441;19;20471;-58
2021/12/14 10:26:24;;;;;;;0.10;0.10;;;;;;;10.19;74.78;101732.13;7364019;19;20480;-58
2021/12/14 10:28:55;;;;;;;0.10;0.10;;;;;;;10.48;74.58;101735.47;7362449;19;20006;-58
2021/12/14 10:31:39;;;;;;;0.00;0.00;;;;;;;10.79;74.92;101727.44;7365562;19;20026;-58
2021/12/14 10:34:22;;;;;;;0.10;0.10;;;;;;;11.07;74.09;101723.75;7363162;19;20010;-58
2021/12/14 10:36:54;;;;;;;0.00;0.00;;;;;;;11.27;72.65;101712.25;7365373;19;20468;-59
2021/12/14 10:44:50;;;;;;;0.00;0.00;;;;;;;11.92;72.14;101727.28;7365357;19;20830;-58
2021/12/14 10:47:20;;;;;;;0.00;0.00;;;;;;;12.05;71.56;101733.22;7358959;19;20022;-59
2021/12/14 10:49:45;;;;;;;0.00;0.00;;;;;;;12.01;69.78;101707.97;7363279;19;20038;-58
2021/12/14 10:52:16;;;;;;;0.00;0.00;;;;;;;12.19;69.36;101726.06;7359400;19;20025;-58
2021/12/14 10:54:46;;;;;;;0.00;0.00;;;;;;;12.26;70.16;101736.47;7364189;19;20896;-58
2021/12/14 10:57:15;;;;;;;0.10;0.10;;;;;;;12.22;68.90;101722.56;7354827;19;20090;-59
2021/12/14 10:59:44;;;;;;;0.00;0.00;;;;;;;12.16;68.76;101720.84;7362167;19;20494;-58
2021/12/14 11:02:10;;;;;;;0.03;0.03;;;;;;;12.17;69.04;101732.22;7361145;19;20085;-59
2021/12/14 11:04:52;;;;;;;0.00;0.00;;;;;;;12.17;69.16;101727.84;7362480;19;20025;-58
2021/12/14 11:07:41;;;;;;;0.10;0.10;;;;;;;12.21;68.91;101728.66;7361156;19;20006;-58
2021/12/14 11:10:30;;;;;;;0.00;0.00;;;;;;;12.38;70.69;101733.69;7371223;19;20017;-58
2021/12/14 11:13:04;;;;;;;0.10;0.10;;;;;;;12.48;68.93;101724.81;7370876;19;20375;-59
2021/12/14 11:15:37;;;;;;;0.00;0.00;;;;;;;12.63;69.15;101721.97;7367854;19;20062;-59
2021/12/14 11:18:10;;;;;;;0.00;0.00;;;;;;;12.75;68.24;101709.56;7367285;19;20014;-58
2021/12/14 11:20:47;;;;;;;0.10;0.10;;;;;;;12.90;68.29;101714.56;7365612;19;20014;-59
2021/12/14 11:23:23;;;;;;;0.10;0.10;;;;;;;13.04;68.75;101704.72;7362188;19;20017;-58
2021/12/14 11:25:51;;;;;;;0.05;0.05;;;;;;;13.24;68.43;101709.66;7369534;19;20048;-59
2021/12/14 11:28:36;;;;;;;0.00;0.00;;;;;;;13.46;68.79;101716.25;7368006;19;20414;-58
2021/12/14 11:31:17;;;;;;;0.08;0.08;;;;;;;13.66;67.92;101702.75;7370346;19;20006;-58
2021/12/14 11:33:56;;;;;;;0.00;0.00;;;;;;;13.82;67.22;101712.94;7364435;19;20063;-59
2021/12/14 11:36:41;;;;;;;0.08;0.08;;;;;;;13.89;65.13;101709.28;7365714;19;20015;-58
2021/12/14 11:39:23;;;;;;;0.00;0.00;;;;;;;14.04;65.07;101695.88;7367903;19;20720;-59
2021/12/14 11:41:56;;;;;;;0.00;0.00;;;;;;;14.18;65.44;101693.78;7369143;19;20562;-59
2021/12/14 11:44:27;;;;;;;0.00;0.00;;;;;;;14.27;63.73;101684.84;7368700;19;20018;-58
2021/12/14 11:47:06;;;;;;;0.00;0.00;;;;;;;14.38;65.48;101671.47;7366821;19;20760;-59
2021/12/14 11:49:52;;;;;;;0.03;0.03;;;;;;;14.51;65.76;101672.97;7365851;19;20827;-58
2021/12/14 11:52:51;;;;;;;0.00;0.00;;;;;;;14.64;66.05;101658.59;7363015;19;20014;-58
2021/12/14 11:55:27;;;;;;;0.10;0.10;;;;;;;14.74;63.63;101670.63;7263856;19;2004056;-58
2021/12/14 11:58:17;;;;;;;0.00;0.00;;;;;;;14.84;65.21;101659.88;7360525;19;20024;-58
2021/12/14 12:01:06;;;;;;;0.03;0.03;;;;;;;14.87;66.29;101649.28;7357019;19;20086;-58
2021/12/14 12:03:55;;;;;;;0.00;0.00;;;;;;;14.99;62.21;101667.38;7366007;19;20353;-59
2021/12/14 12:09:34;;;;;;;0.10;0.10;;;;;;;15.09;63.51;101655.72;7365594;19;20013;-59
2021/12/14 12:12:03;;;;;;;0.10;0.10;;;;;;;15.15;62.12;101654.69;7265757;19;2006121;-59
2021/12/14 12:14:46;;;;;;;0.00;0.00;;;;;;;15.22;63.73;101662.41;7362658;19;20510;-58
2021/12/14 12:17:27;;;;;;;0.03;0.03;;;;;;;15.25;62.43;101664.06;7365934;19;20007;-59
2021/12/14 12:20:17;;;;;;;0.05;0.05;;;;;;;15.31;63.14;101667.41;7360241;19;20113;-58
2021/12/14 12:23:11;;;;;;;0.00;0.00;;;;;;;15.33;60.28;101664.75;7363149;19;20451;-58
2021/12/14 12:25:41;;;;;;;0.10;0.10;;;;;;;15.36;60.26;101658.50;7264986;19;2004331;-58
2021/12/14 12:28:17;;;;;;;0.00;0.00;;;;;;;15.40;61.42;101655.75;7360746;19;20374;-59
2021/12/14 12:31:04;;;;;;;0.00;0.00;;;;;;;15.46;61.54;101654.72;7364501;19;19998;-58
2021/12/14 12:33:38;;;;;;;0.08;0.08;;;;;;;15.41;59.80;101656.63;7359448;19;20078;-58
2021/12/14 12:36:10;;;;;;;0.00;0.00;;;;;;;15.40;59.48;101649.63;7366927;19;20014;-58
2021/12/14 12:38:58;;;;;;;0.00;0.00;;;;;;;15.37;59.91;101639.22;7365770;19;20014;-59